createdAt,value
2018-05-15T00:02:21.138Z,57.97
2018-05-15T00:04:49.475Z,59.56
2018-05-15T00:07:17.784Z,59.13
2018-05-15T00:09:46.116Z,59.66
2018-05-15T00:12:14.445Z,61.24
2018-05-15T00:14:42.773Z,61.35
2018-05-15T00:17:11.096Z,63.05
2018-05-15T00:19:39.436Z,63.59
2018-05-15T00:22:08.040Z,63.95
2018-05-15T00:24:36.380Z,65.01
2018-05-15T00:27:05.371Z,65.02
2018-05-15T00:29:33.900Z,65.82
2018-05-15T00:32:02.455Z,66.26
2018-05-15T00:34:30.796Z,67.64
2018-05-15T00:36:59.895Z,69.12
2018-05-15T00:39:28.461Z,68.14
2018-05-15T00:41:56.767Z,69.87
2018-05-15T00:44:25.290Z,68.67
2018-05-15T00:46:53.876Z,69.85
2018-05-15T00:49:22.374Z,69.58
2018-05-15T00:51:50.683Z,68.42
2018-05-15T00:54:19.404Z,68.03
2018-05-15T00:56:47.712Z,68.39
2018-05-15T00:59:16.063Z,68.34
2018-05-15T01:01:44.374Z,68.87
2018-05-15T01:04:12.710Z,67.44
2018-05-15T01:06:41.028Z,67.24
2018-05-15T01:09:09.360Z,69.40
2018-05-15T01:11:37.671Z,70.15
2018-05-15T01:14:06.004Z,67.41
2018-05-15T01:16:34.319Z,67.33
2018-05-15T01:19:02.647Z,70.46
2018-05-15T01:21:31.251Z,71.40
2018-05-15T01:23:59.599Z,70.53
2018-05-15T01:26:28.244Z,70.42
2018-05-15T01:28:56.585Z,71.55
2018-05-15T01:31:24.891Z,68.97
2018-05-15T01:33:53.227Z,69.84
2018-05-15T01:36:21.539Z,69.29
2018-05-15T01:38:49.872Z,69.68
2018-05-15T01:41:18.184Z,70.00
2018-05-15T01:43:46.529Z,69.64
2018-05-15T01:46:14.835Z,69.26
2018-05-15T01:48:43.303Z,69.04
2018-05-15T01:51:11.611Z,69.67
2018-05-15T01:53:39.956Z,70.37
2018-05-15T01:56:08.263Z,71.00
2018-05-15T01:58:36.608Z,70.43
2018-05-15T02:01:04.926Z,71.20
2018-05-15T02:03:33.681Z,71.83
2018-05-15T02:06:01.992Z,70.67
2018-05-15T02:08:30.323Z,72.68
2018-05-15T02:10:58.634Z,73.24
2018-05-15T02:13:26.967Z,72.78
2018-05-15T02:15:55.279Z,72.10
2018-05-15T02:18:23.611Z,73.76
2018-05-15T02:20:52.484Z,73.61
2018-05-15T02:23:21.598Z,72.94
2018-05-15T02:25:49.903Z,74.02
2018-05-15T02:28:18.235Z,74.90
2018-05-15T02:30:46.871Z,75.49
2018-05-15T02:33:15.201Z,76.76
2018-05-15T02:35:43.511Z,75.86
2018-05-15T02:38:12.016Z,76.12
2018-05-15T02:40:40.776Z,76.14
2018-05-15T02:43:09.519Z,76.49
2018-05-15T02:45:38.003Z,77.08
2018-05-15T02:48:07.005Z,77.92
2018-05-15T02:50:35.423Z,78.05
2018-05-15T02:53:03.887Z,78.86
2018-05-15T02:55:32.440Z,78.37
2018-05-15T02:58:01.592Z,78.62
2018-05-15T03:00:30.412Z,78.34
2018-05-15T03:02:58.846Z,78.80
2018-05-15T03:05:27.398Z,79.43
2018-05-15T03:07:55.729Z,79.86
2018-05-15T03:10:24.520Z,78.72
2018-05-15T03:12:53.311Z,78.45
2018-05-15T03:15:21.643Z,78.02
2018-05-15T03:17:50.243Z,78.57
2018-05-15T03:20:18.801Z,78.20
2018-05-15T03:22:47.316Z,79.26
2018-05-15T03:25:15.759Z,79.09
2018-05-15T03:27:44.159Z,78.86
2018-05-15T03:30:12.552Z,78.31
2018-05-15T03:32:41.131Z,78.57
2018-05-15T03:35:09.687Z,78.56
2018-05-15T03:37:37.995Z,79.14
2018-05-15T03:40:06.651Z,79.03
2018-05-15T03:42:34.959Z,78.89
2018-05-15T03:45:03.612Z,79.06
2018-05-15T03:47:32.017Z,78.01
2018-05-15T03:50:00.580Z,78.34
2018-05-15T03:52:28.886Z,78.30
2018-05-15T03:54:57.346Z,77.60
2018-05-15T03:57:26.360Z,78.37
2018-05-15T03:59:54.690Z,78.15
2018-05-15T04:02:34.882Z,76.50
2018-05-15T04:05:15.691Z,77.23
2018-05-15T04:07:55.629Z,76.93
2018-05-15T04:10:24.271Z,76.78
2018-05-15T04:12:52.572Z,77.01
2018-05-15T04:15:21.630Z,76.73
2018-05-15T04:17:49.935Z,74.84
2018-05-15T04:20:18.271Z,75.34
2018-05-15T04:22:46.692Z,76.17
2018-05-15T04:25:15.159Z,75.17
2018-05-15T04:27:43.563Z,75.37
2018-05-15T04:30:11.894Z,75.62
2018-05-15T04:32:40.740Z,75.52
2018-05-15T04:35:09.170Z,75.27
2018-05-15T04:37:37.407Z,74.26
2018-05-15T04:40:05.757Z,73.36
2018-05-15T04:42:34.088Z,72.90
2018-05-15T04:45:02.426Z,72.97
2018-05-15T04:47:30.751Z,72.60
2018-05-15T04:49:59.080Z,71.54
2018-05-15T04:52:27.391Z,70.60
2018-05-15T04:54:55.725Z,70.60
2018-05-15T04:57:24.044Z,70.91
2018-05-15T04:59:52.371Z,70.44
2018-05-15T05:02:20.675Z,69.37
2018-05-15T05:04:49.011Z,68.55
2018-05-15T05:07:17.336Z,66.65
2018-05-15T05:09:45.682Z,62.88
2018-05-15T05:12:13.994Z,60.03
2018-05-15T05:14:42.332Z,59.70
2018-05-15T05:17:10.638Z,59.70
2018-05-15T05:19:38.971Z,57.17
2018-05-15T05:22:07.283Z,57.45
2018-05-15T05:24:35.655Z,59.48
2018-05-15T05:27:03.989Z,58.54
2018-05-15T05:29:32.309Z,59.24
2018-05-15T05:32:00.620Z,59.42
2018-05-15T05:34:28.951Z,59.46
2018-05-15T05:36:57.265Z,59.65
2018-05-15T05:39:25.586Z,60.44
2018-05-15T05:41:53.909Z,58.80
2018-05-15T05:44:22.243Z,58.08
2018-05-15T05:46:50.552Z,57.66
2018-05-15T05:49:18.891Z,58.53
2018-05-15T05:51:47.196Z,58.38
2018-05-15T05:54:15.527Z,57.30
2018-05-15T05:56:43.848Z,57.65
2018-05-15T05:59:12.183Z,57.25
2018-05-15T06:01:40.525Z,57.62
2018-05-15T06:04:08.836Z,55.82
2018-05-15T06:06:37.167Z,56.31
2018-05-15T06:09:05.507Z,56.29
2018-05-15T06:11:33.844Z,55.59
2018-05-15T06:14:02.144Z,56.20
2018-05-15T06:16:30.488Z,55.97
2018-05-15T06:18:58.808Z,55.29
2018-05-15T06:21:27.138Z,56.15
2018-05-15T06:23:55.609Z,56.86
2018-05-15T06:26:23.802Z,56.28
2018-05-15T06:28:52.111Z,56.30
2018-05-15T06:31:20.443Z,57.51
2018-05-15T06:33:48.748Z,57.58
2018-05-15T06:36:17.099Z,56.73
2018-05-15T06:38:45.410Z,56.23
2018-05-15T06:41:13.740Z,55.73
2018-05-15T06:43:42.058Z,54.99
2018-05-15T06:46:10.388Z,54.72
2018-05-15T06:48:38.695Z,55.43
2018-05-15T06:51:07.032Z,55.01
2018-05-15T06:53:35.339Z,53.88
2018-05-15T06:56:03.673Z,54.34
2018-05-15T06:58:31.995Z,54.95
2018-05-15T07:01:00.328Z,53.35
2018-05-15T07:03:28.648Z,51.83
2018-05-15T07:05:56.980Z,49.09
2018-05-15T07:08:25.292Z,46.23
2018-05-15T07:10:53.640Z,40.90
2018-05-15T07:13:21.948Z,37.58
2018-05-15T07:15:50.287Z,40.34
2018-05-15T07:18:18.600Z,44.63
2018-05-15T07:20:46.928Z,44.88
2018-05-15T07:23:15.235Z,41.92
2018-05-15T07:25:44.036Z,39.53
2018-05-15T07:28:13.922Z,39.87
2018-05-15T07:30:42.520Z,43.53
2018-05-15T07:33:11.289Z,43.68
2018-05-15T07:35:39.532Z,43.77
2018-05-15T07:38:07.855Z,46.34
2018-05-15T07:40:36.324Z,46.06
2018-05-15T07:43:05.001Z,42.09
2018-05-15T07:45:33.482Z,37.71
2018-05-15T07:48:01.914Z,40.95
2018-05-15T07:50:30.410Z,39.64
2018-05-15T07:52:59.012Z,41.10
2018-05-15T07:55:27.407Z,42.21
2018-05-15T07:57:55.719Z,45.64
2018-05-15T08:00:24.056Z,46.13
2018-05-15T08:02:52.383Z,47.27
2018-05-15T08:05:20.711Z,49.19
2018-05-15T08:07:49.396Z,46.88
2018-05-15T08:10:17.728Z,43.59
2018-05-15T08:12:46.039Z,39.66
2018-05-15T08:15:14.605Z,41.20
2018-05-15T08:17:42.926Z,39.32
2018-05-15T08:20:11.268Z,36.21
2018-05-15T08:22:39.583Z,30.42
2018-05-15T08:25:07.919Z,30.83
2018-05-15T08:27:36.579Z,30.67
2018-05-15T08:30:04.921Z,34.15
2018-05-15T08:32:33.236Z,32.79
2018-05-15T08:35:01.575Z,27.45
2018-05-15T08:37:29.968Z,23.83
2018-05-15T08:39:58.231Z,22.95
2018-05-15T08:42:26.546Z,21.49
2018-05-15T08:44:54.867Z,23.81
2018-05-15T08:47:23.183Z,23.58
2018-05-15T08:49:51.495Z,22.76
2018-05-15T08:52:19.843Z,23.91
2018-05-15T08:54:48.172Z,22.86
2018-05-15T08:57:16.480Z,22.35
2018-05-15T08:59:44.796Z,20.46
2018-05-15T09:02:13.119Z,21.54
2018-05-15T09:04:41.448Z,20.88
2018-05-15T09:07:09.790Z,21.68
2018-05-15T09:09:38.099Z,23.96
2018-05-15T09:12:06.436Z,23.58
2018-05-15T09:14:34.751Z,22.45
2018-05-15T09:17:03.105Z,21.30
2018-05-15T09:19:31.400Z,21.26
2018-05-15T09:21:59.726Z,21.10
2018-05-15T09:24:28.041Z,19.19
2018-05-15T09:26:56.371Z,19.35
2018-05-15T09:29:25.108Z,18.61
2018-05-15T09:31:53.414Z,19.14
2018-05-15T09:34:21.999Z,19.66
2018-05-15T09:36:50.448Z,19.64
2018-05-15T09:39:19.239Z,17.15
2018-05-15T09:41:47.991Z,18.26
2018-05-15T09:44:16.843Z,18.96
2018-05-15T09:46:45.503Z,19.06
2018-05-15T09:49:14.170Z,20.35
2018-05-15T09:51:43.491Z,19.54
2018-05-15T09:54:12.543Z,19.83
2018-05-15T09:56:40.976Z,20.77
2018-05-15T09:59:11.138Z,19.43
2018-05-15T10:01:39.463Z,19.00
2018-05-15T10:04:07.782Z,19.66
2018-05-15T10:06:36.112Z,21.10
2018-05-15T10:09:04.425Z,22.21
2018-05-15T10:11:32.763Z,21.22
2018-05-15T10:14:01.080Z,22.29
2018-05-15T10:16:29.407Z,22.18
2018-05-15T10:18:57.718Z,22.74
2018-05-15T10:21:26.052Z,24.31
2018-05-15T10:23:54.359Z,22.77
2018-05-15T10:26:22.702Z,22.05
2018-05-15T10:28:51.169Z,26.38
2018-05-15T10:31:19.514Z,25.87
2018-05-15T10:33:48.551Z,23.83
2018-05-15T10:36:17.023Z,23.89
2018-05-15T10:38:45.920Z,25.19
2018-05-15T10:41:14.667Z,26.47
2018-05-15T10:43:42.975Z,28.64
2018-05-15T10:46:11.319Z,24.72
2018-05-15T10:48:39.631Z,29.05
2018-05-15T10:51:07.959Z,27.83
2018-05-15T10:53:36.278Z,26.88
2018-05-15T10:56:04.607Z,27.02
2018-05-15T10:58:32.923Z,28.38
2018-05-15T11:01:01.253Z,28.11
2018-05-15T11:03:29.559Z,27.59
2018-05-15T11:05:57.895Z,25.59
2018-05-15T11:08:26.221Z,24.01
2018-05-15T11:10:54.547Z,23.34
2018-05-15T11:13:22.864Z,20.52
2018-05-15T11:15:51.190Z,21.66
2018-05-15T11:18:31.243Z,24.85
2018-05-15T11:21:11.232Z,25.44
2018-05-15T11:23:51.117Z,28.17
2018-05-15T11:26:19.460Z,30.49
2018-05-15T11:28:47.771Z,30.86
2018-05-15T11:31:16.231Z,30.35
2018-05-15T11:33:45.023Z,27.55
2018-05-15T11:36:14.042Z,23.88
2018-05-15T11:38:42.555Z,24.60
2018-05-15T11:41:11.521Z,24.61
2018-05-15T11:43:40.432Z,27.56
2018-05-15T11:46:08.994Z,27.99
2018-05-15T11:48:37.801Z,26.95
2018-05-15T11:51:06.825Z,24.24
2018-05-15T11:53:34.355Z,26.26
2018-05-15T11:56:02.735Z,27.18
2018-05-15T11:58:32.243Z,29.41
2018-05-15T12:01:00.575Z,27.27
2018-05-15T12:03:29.647Z,26.59
2018-05-15T12:05:58.238Z,25.79
2018-05-15T12:08:27.015Z,25.07
2018-05-15T12:10:55.664Z,23.75
2018-05-15T12:13:23.989Z,27.17
2018-05-15T12:15:52.819Z,27.22
2018-05-15T12:18:21.227Z,28.96
2018-05-15T12:20:50.331Z,29.67
2018-05-15T12:23:18.776Z,28.79
2018-05-15T12:25:47.255Z,24.93
2018-05-15T12:28:15.575Z,27.18
2018-05-15T12:30:44.043Z,26.82
2018-05-15T12:33:12.872Z,26.26
2018-05-15T12:35:41.578Z,27.08
2018-05-15T12:38:09.908Z,28.04
2018-05-15T12:40:38.800Z,27.25
2018-05-15T12:43:07.149Z,26.18
2018-05-15T12:45:35.472Z,25.04
2018-05-15T12:48:03.861Z,26.09
2018-05-15T12:50:32.115Z,25.20
2018-05-15T12:53:00.448Z,25.96
2018-05-15T12:55:28.755Z,25.65
2018-05-15T12:57:57.099Z,25.30
2018-05-15T13:00:25.406Z,23.86
2018-05-15T13:02:53.747Z,26.17
2018-05-15T13:05:22.059Z,28.36
2018-05-15T13:07:50.390Z,26.20
2018-05-15T13:10:18.699Z,25.58
2018-05-15T13:12:47.044Z,24.84
2018-05-15T13:15:15.360Z,26.18
2018-05-15T13:17:43.697Z,24.17
2018-05-15T13:20:12.015Z,23.47
2018-05-15T13:22:40.348Z,26.03
2018-05-15T13:25:08.672Z,25.52
2018-05-15T13:27:36.991Z,25.45
2018-05-15T13:30:05.331Z,24.13
2018-05-15T13:32:33.703Z,25.38
2018-05-15T13:35:02.341Z,25.65
2018-05-15T13:37:30.639Z,24.70
2018-05-15T13:39:58.979Z,25.71
2018-05-15T13:42:27.380Z,27.31
2018-05-15T13:44:55.724Z,27.21
2018-05-15T13:47:24.095Z,26.37
2018-05-15T13:49:52.436Z,27.29
2018-05-15T13:52:20.747Z,27.63
2018-05-15T13:54:49.531Z,26.83
2018-05-15T13:57:17.853Z,25.11
2018-05-15T13:59:46.443Z,26.12
2018-05-15T14:02:15.159Z,25.56
2018-05-15T14:04:43.803Z,24.55
2018-05-15T14:07:12.120Z,25.22
2018-05-15T14:09:40.930Z,27.73
2018-05-15T14:12:09.907Z,27.52
2018-05-15T14:14:38.915Z,25.25
2018-05-15T14:17:07.231Z,25.24
2018-05-15T14:19:35.572Z,26.29
2018-05-15T14:22:03.889Z,27.15
2018-05-15T14:24:32.215Z,29.79
2018-05-15T14:27:00.536Z,29.72
2018-05-15T14:29:28.876Z,28.48
2018-05-15T14:31:57.187Z,29.41
2018-05-15T14:34:25.531Z,28.60
2018-05-15T14:36:54.089Z,29.69
2018-05-15T14:39:22.555Z,29.72
2018-05-15T14:42:03.347Z,31.23
2018-05-15T14:44:31.666Z,29.61
2018-05-15T14:47:00.000Z,30.03
2018-05-15T14:49:28.324Z,31.50
2018-05-15T14:51:56.656Z,29.86
2018-05-15T14:54:25.936Z,30.39
2018-05-15T14:56:55.395Z,33.78
2018-05-15T14:59:24.258Z,33.21
2018-05-15T15:01:52.740Z,32.82
2018-05-15T15:04:21.431Z,33.28
2018-05-15T15:06:49.844Z,30.52
2018-05-15T15:09:18.167Z,30.11
2018-05-15T15:11:46.507Z,31.30
2018-05-15T15:14:14.833Z,30.09
2018-05-15T15:16:43.159Z,30.68
2018-05-15T15:19:11.475Z,29.40
2018-05-15T15:21:39.804Z,30.86
2018-05-15T15:24:08.205Z,30.31
2018-05-15T15:26:36.540Z,31.06
2018-05-15T15:29:04.852Z,33.35
2018-05-15T15:31:33.187Z,32.51
2018-05-15T15:34:01.491Z,31.62
2018-05-15T15:36:30.083Z,31.68
2018-05-15T15:38:58.980Z,30.32
2018-05-15T15:41:27.759Z,31.21
2018-05-15T15:43:56.244Z,29.27
2018-05-15T15:46:25.025Z,29.34
2018-05-15T15:48:54.895Z,32.00
2018-05-15T15:51:23.227Z,31.69
2018-05-15T15:53:52.299Z,34.02
2018-05-15T16:30:30.096Z,54.23
2018-05-15T16:32:58.448Z,54.54
2018-05-15T16:37:57.920Z,52.79
2018-05-15T16:51:34.687Z,35.35
2018-05-15T16:54:03.365Z,36.71
2018-05-15T16:56:31.724Z,36.19
2018-05-15T16:59:00.123Z,39.01
2018-05-15T17:01:28.679Z,38.20
2018-05-15T17:03:57.081Z,39.62
2018-05-15T17:06:25.456Z,38.86
2018-05-15T17:08:53.860Z,39.39
2018-05-15T17:11:22.239Z,39.87
2018-05-15T17:13:50.643Z,40.55
2018-05-15T17:16:19.007Z,37.94
2018-05-15T17:18:47.399Z,39.58
2018-05-15T17:21:15.772Z,40.18
2018-05-15T17:23:44.195Z,39.97
2018-05-15T17:26:12.624Z,41.20
2018-05-15T17:28:41.020Z,41.30
2018-05-15T17:31:09.410Z,41.45
2018-05-15T17:33:37.855Z,42.97
2018-05-15T17:36:06.236Z,42.42
2018-05-15T17:38:34.649Z,43.60
2018-05-15T17:41:03.076Z,44.11
2018-05-15T17:43:31.528Z,44.78
2018-05-15T17:46:00.972Z,45.74
2018-05-15T17:48:29.471Z,45.61
2018-05-15T17:50:58.163Z,46.58
2018-05-15T17:53:26.560Z,48.55
2018-05-15T17:55:54.927Z,47.10
2018-05-15T17:58:23.632Z,46.66
2018-05-15T18:00:52.016Z,47.07
2018-05-15T18:03:20.426Z,50.10
2018-05-15T18:05:49.048Z,48.74
2018-05-15T18:08:17.451Z,49.03
2018-05-15T18:10:46.131Z,50.75
2018-05-15T18:13:14.531Z,52.71
2018-05-15T18:15:42.908Z,53.87
2018-05-15T18:18:11.772Z,52.99
2018-05-15T18:20:40.496Z,54.83
2018-05-15T18:23:09.000Z,55.46
2018-05-15T18:25:37.572Z,53.53
2018-05-15T18:28:05.971Z,53.66
2018-05-15T18:30:34.428Z,53.28
2018-05-15T18:33:03.770Z,53.18
2018-05-15T18:35:32.084Z,52.88
2018-05-15T18:38:00.704Z,52.46
2018-05-15T18:40:29.950Z,52.50
2018-05-15T18:42:58.367Z,54.08
2018-05-15T18:45:26.833Z,55.78
2018-05-15T18:47:55.226Z,55.83
2018-05-15T18:50:24.736Z,56.92
2018-05-15T18:52:53.324Z,57.56
2018-05-15T18:55:21.981Z,57.96
2018-05-15T18:57:50.699Z,56.08
2018-05-15T19:00:19.906Z,58.73
2018-05-15T19:02:48.446Z,59.48
2018-05-15T19:05:17.228Z,57.74
2018-05-15T19:07:45.663Z,52.39
2018-05-15T19:10:14.052Z,50.14
2018-05-15T19:12:42.830Z,47.45
2018-05-15T19:15:11.199Z,46.21
2018-05-15T19:17:40.110Z,47.79
2018-05-15T19:20:08.627Z,47.93
2018-05-15T19:22:37.007Z,47.69
2018-05-15T19:25:05.835Z,49.69
2018-05-15T19:27:34.290Z,52.44
2018-05-15T19:30:03.029Z,53.19
2018-05-15T19:32:37.175Z,54.00
2018-05-15T19:35:07.535Z,55.38
2018-05-15T19:37:35.917Z,57.17
2018-05-15T19:40:09.886Z,57.88
2018-05-15T19:42:38.364Z,58.15
2018-05-15T19:45:07.097Z,59.29
2018-05-15T19:47:35.651Z,60.57
2018-05-15T19:50:04.215Z,61.83
2018-05-15T19:52:33.293Z,62.88
2018-05-15T19:55:01.822Z,63.08
2018-05-15T19:57:31.132Z,63.36
2018-05-15T20:00:00.041Z,63.57
2018-05-15T20:02:28.983Z,63.64
2018-05-15T20:04:57.839Z,63.86
2018-05-15T20:07:27.127Z,64.73
2018-05-15T20:09:56.222Z,63.85
2018-05-15T20:12:25.659Z,63.96
2018-05-15T20:14:54.195Z,65.33
2018-05-15T20:17:22.574Z,65.75
2018-05-15T20:19:51.155Z,65.35
2018-05-15T20:22:19.543Z,65.42
2018-05-15T20:24:47.960Z,64.76
2018-05-15T20:27:16.764Z,64.85
2018-05-15T20:29:45.163Z,64.88
2018-05-15T20:32:13.545Z,65.48
2018-05-15T20:34:42.049Z,64.79
2018-05-15T20:37:10.431Z,66.20
2018-05-15T20:39:38.831Z,66.30
2018-05-15T20:42:07.559Z,67.47
2018-05-15T20:44:35.867Z,67.19
2018-05-15T20:47:04.455Z,66.38
2018-05-15T20:49:32.893Z,65.91
2018-05-15T20:52:01.273Z,65.71
2018-05-15T20:54:29.676Z,65.93
2018-05-15T20:56:58.057Z,66.46
2018-05-15T20:59:26.447Z,66.99
2018-05-15T21:01:54.820Z,68.11
2018-05-15T21:04:23.216Z,68.59
2018-05-15T21:06:51.779Z,69.20
2018-05-15T21:09:20.175Z,69.87
2018-05-15T21:11:48.544Z,69.85
2018-05-15T21:14:17.067Z,70.22
2018-05-15T21:16:46.092Z,70.25
2018-05-15T21:19:14.491Z,70.05
2018-05-15T21:21:42.865Z,70.59
2018-05-15T21:24:11.269Z,70.83
2018-05-15T21:26:39.648Z,70.37
2018-05-15T21:29:08.047Z,70.58
2018-05-15T21:31:36.433Z,70.65
2018-05-15T21:34:04.951Z,70.72
2018-05-15T21:36:33.331Z,71.29
2018-05-15T21:39:01.736Z,70.82
2018-05-15T21:41:30.111Z,70.59
2018-05-15T21:43:58.506Z,70.48
2018-05-15T21:46:26.976Z,70.34
2018-05-15T21:48:55.371Z,69.85
2018-05-15T21:51:24.088Z,70.58
2018-05-15T21:53:52.815Z,70.74
2018-05-15T21:56:21.204Z,70.43
2018-05-15T21:58:50.184Z,70.50
2018-05-15T22:01:18.556Z,70.31
2018-05-15T22:03:46.952Z,70.19
2018-05-15T22:06:15.316Z,70.43
2018-05-15T22:08:44.027Z,70.35
2018-05-15T22:11:13.802Z,70.68
2018-05-15T22:13:53.811Z,71.14
2018-05-15T22:16:39.811Z,70.91
2018-05-15T22:19:26.682Z,71.03
2018-05-15T22:22:12.671Z,71.31
2018-05-15T22:24:40.792Z,71.97
2018-05-15T22:27:09.182Z,72.36
2018-05-15T22:29:37.584Z,72.19
2018-05-15T22:32:05.960Z,72.50
2018-05-15T22:34:34.359Z,73.02
2018-05-15T22:37:02.752Z,73.58
2018-05-15T22:39:31.140Z,73.71
2018-05-15T22:41:59.511Z,73.40
2018-05-15T22:44:28.055Z,73.26
2018-05-15T22:46:56.442Z,73.01
2018-05-15T22:49:24.843Z,72.90
2018-05-15T22:51:53.540Z,72.20
2018-05-15T22:54:21.943Z,72.37
2018-05-15T22:56:50.311Z,72.06
2018-05-15T22:59:18.963Z,72.04
2018-05-15T23:01:47.351Z,71.83
2018-05-15T23:04:15.753Z,72.13
2018-05-15T23:06:44.137Z,72.31
2018-05-15T23:09:12.532Z,72.58
2018-05-15T23:11:40.921Z,72.59
2018-05-15T23:14:09.315Z,72.12
2018-05-15T23:16:37.727Z,72.31
2018-05-15T23:19:06.111Z,73.12
2018-05-15T23:21:34.512Z,73.76
2018-05-15T23:24:02.908Z,74.19
2018-05-15T23:26:31.630Z,74.00
2018-05-15T23:29:00.007Z,74.18
2018-05-15T23:31:28.539Z,74.66
2018-05-15T23:33:56.910Z,74.95
2018-05-15T23:36:25.303Z,74.93
2018-05-15T23:38:53.683Z,74.66
2018-05-15T23:41:22.085Z,74.13
2018-05-15T23:43:52.707Z,74.04
2018-05-15T23:46:21.099Z,74.07
2018-05-15T23:48:49.484Z,74.31
2018-05-15T23:51:17.916Z,74.46
2018-05-15T23:53:46.808Z,74.08
2018-05-15T23:56:15.208Z,72.96
2018-05-15T23:58:43.580Z,73.57
